Latest Coastal Weather Observations for Lord Howe Island

IDN60701

Issued at 12:15 pm EST Thursday 24 April 2014 (issued every 10 minutes, with the page automatically refreshed every 10 minutes)

About coastal observations | Map of coastal stations | Coastal observations for NSW | Marine services | Other Formats
Station Details ID: 200839 Name: LORD HOWE ISLAND AERO Lat: -31.54 Lon: 159.08 Height: 5.0 m
Data from the previous 72 hours. | See also: Recent months at Lord Howe Island
Date/Time
EST
Temp

°C
Wind Pressure Rain
since 9am
mm
Weather Cloud Vis
km
Sea
Height
m
Swell
Dir
 
Speed
knots
Gust
knots
hPa Trend Height
m
Period
s
Dir
24/12:00pm 22.4 N 5 8 1017.4 - 10.0 - Mostly clear 10 - - - -
24/11:30am 21.6 NW 1 5 1017.8 F 10.0 Recent precip. Mostly cloudy 15 - - - -
24/11:00am 20.4 NE 7 11 1018.5 - 2.0 Showers Mostly clear 3 - - - -
24/10:55am 20.7 ENE 8 13 1018.5 - 0.0 Showers Mostly clear 4 - - - -
24/10:30am 21.2 ENE 9 13 1018.7 - 0.0 - Mostly clear 10 - - - -
24/10:00am 22.0 ENE 8 10 1019.0 - 0.0 - Mostly clear 10 - - - -
24/09:30am 22.5 ENE 7 9 1019.3 - 0.0 - Mostly clear 10 - - - -
24/09:00am 21.8 ENE 7 9 1019.2 - 0.0 - Mostly clear 10 - - - -
24/08:30am 20.7 E 8 10 1019.2 R 13.4 Recent precip. Partly cloudy 20 - - - -
24/08:00am 19.3 E 9 11 1019.4 - 13.4 - Mostly clear 10 - - - -
24/07:30am 18.9 NE 7 11 1019.6 - 13.4 Showers Mostly clear 7 - - - -
24/07:09am 18.8 W 4 6 1019.5 - 8.6 Showers Mostly clear 2 - - - -
24/07:00am 19.0 N 5 11 1019.3 - 7.4 Showers Mostly clear 4 - - - -
24/06:50am 19.1 N 8 13 1019.2 - 6.6 Showers Mostly clear 5 - - - -
24/06:30am 20.3 N 8 12 1018.6 - 6.4 - Mostly clear 10 - - - -
24/06:00am 21.2 N 5 11 1018.1 - 6.4 - Mostly clear 10 - - - -
24/05:30am 20.8 N 7 13 1017.9 F 6.4 Distant precip. Partly cloudy 30 - - - -
24/05:00am 21.5 N 5 9 1017.7 - 6.4 - Partly cloudy 10 - - - -
24/04:30am 21.6 N 5 8 1017.6 - 6.4 - Partly cloudy 10 - - - -
24/04:00am 21.8 N 5 10 1017.7 - 6.4 - Partly cloudy 10 - - - -
24/03:30am 21.7 N 7 11 1017.6 - 6.4 - Partly cloudy 10 - - - -
24/03:00am 21.4 N 5 8 1017.7 - 6.4 - Partly cloudy 10 - - - -
24/02:30am 21.4 N 6 10 1017.8 - 6.4 - Cloudy 10 - - - -
24/02:00am 21.6 N 4 9 1018.1 - 5.8 - Partly cloudy 10 - - - -
24/01:30am 21.2 N 5 8 1018.4 - 5.8 - Partly cloudy 10 - - - -
24/01:00am 21.5 NNW 7 12 1018.6 - 5.8 - Partly cloudy 10 - - - -
24/12:30am 20.9 NNW 3 9 1018.8 - 5.8 - Partly cloudy 10 - - - -
24/12:00am 20.6 NE 4 6 1018.9 - 5.8 - Partly cloudy 10 - - - -
 
Date/Time
EST
Temp

°C
Wind Pressure Rain
since 9am
mm
Weather Cloud Vis
km
Sea
Height
m
Swell
Dir
 
Speed
knots
Gust
knots
hPa Trend Height
m
Period
s
Dir
23/11:30pm 20.6 NNE 6 11 1019.2 - 5.8 - Mostly cloudy 10 - - - -
23/11:04pm 19.6 NE 5 9 1019.4 - 5.8 - Partly cloudy 10 - - - -
23/11:03pm 19.7 NE 5 9 1019.4 - 5.8 - Partly cloudy 10 - - - -
23/11:00pm 19.5 E 5 7 1019.4 - 5.8 - Partly cloudy 10 - - - -
23/10:51pm 19.3 N 5 9 1019.5 - 5.8 - Partly cloudy 5 - - - -
23/10:30pm 19.3 N 10 15 1019.9 - 2.8 - Partly cloudy 3 - - - -
23/10:23pm 19.7 N 10 16 1019.8 - 0.8 - Partly cloudy 6 - - - -
23/10:00pm 22.0 N 3 5 1019.3 - 0.0 - Partly cloudy 10 - - - -
23/09:30pm 21.9 N 3 7 1019.8 - 0.0 - Partly cloudy 10 - - - -
23/09:00pm 21.7 N 3 5 1019.7 - 0.0 - Partly cloudy 10 - - - -
23/08:30pm 22.0 N 3 5 1019.7 - 0.0 - Cloudy 10 - - - -
23/08:00pm 21.8 N 5 7 1019.6 - 0.0 - Partly cloudy 10 - - - -
23/07:30pm 22.2 N 6 11 1019.4 - 0.0 - Partly cloudy 10 - - - -
23/07:00pm 21.7 N 4 5 1019.5 - 0.0 - Partly cloudy 10 - - - -
23/06:30pm 21.5 N 3 5 1019.5 - 0.0 - Partly cloudy 10 - - - -
23/06:00pm 21.3 N 5 7 1019.3 - 0.0 - Partly cloudy 10 - - - -
23/05:30pm 20.2 N 5 7 1018.8 - 0.0 - - 10 - - - -
23/05:00pm 21.1 N 3 6 1018.6 - 0.0 - - 10 - - - -
23/04:30pm 21.9 N 4 7 1018.6 - 0.0 - - 10 - - - -
23/04:00pm 22.8 NNW 4 7 1018.5 - 0.0 - - 10 - - - -
23/03:30pm 23.4 WNW 5 8 1018.5 - 0.0 - - 10 - - - -
23/03:00pm 23.7 WNW 5 8 1018.8 - 0.0 - - 10 - - - -
23/02:30pm 23.6 WNW 6 9 1018.9 F 0.0 Fine Mostly clear 30 - - - -
23/02:00pm 24.1 W 7 10 1019.0 - 0.0 - Mostly clear 10 - - - -
23/01:30pm 24.1 N 6 9 1019.0 - 0.0 - Mostly clear 10 - - - -
23/01:00pm 23.7 N 7 15 1018.8 - 0.0 - Mostly clear 10 - - - -
23/12:30pm 24.2 N 7 11 1019.2 - 0.0 - Mostly clear 10 - - - -
23/12:00pm 24.2 NW 5 10 1019.8 - 0.0 - Mostly clear 10 - - - -
23/11:30am 24.0 N 6 10 1020.3 F 0.0 Fine Partly cloudy 30 - - - -
23/11:00am 24.1 W 7 9 1020.7 - 0.0 - Mostly clear 10 - - - -
23/10:30am 24.0 W 6 8 1021.2 - 0.0 - Mostly clear 10 - - - -
23/10:00am 23.9 W 5 9 1021.4 - 0.0 - Mostly clear 10 - - - -
23/09:30am 23.4 W 5 7 1021.5 - 0.0 - Mostly clear 10 - - - -
23/09:00am 22.5 W 5 6 1021.9 - 0.0 - Mostly clear 10 - - - -
23/08:30am 22.6 W 5 6 1022.0 R 0.0 Distant precip. Mostly cloudy 30 - - - -
23/08:00am 22.7 W 5 7 1022.0 - 0.0 - Mostly clear 10 - - - -
23/07:30am 21.8 WNW 3 5 1021.7 - 0.0 - Mostly clear 10 - - - -
23/07:00am 20.2 WSW 2 4 1021.3 - 0.0 - Mostly clear 10 - - - -
23/06:30am 18.5 CALM 0 0 1021.2 - 0.0 - Mostly clear 10 - - - -
23/06:00am 17.4 W 1 3 1021.0 - 0.0 - Mostly clear 10 - - - -
23/05:30am 19.3 W 4 5 1020.9 F 0.0 Fine Partly cloudy 30 - - - -
23/05:00am 19.6 WNW 3 5 1020.9 - 0.0 - - 10 - - - -
23/04:30am 20.5 WNW 2 6 1020.8 - 0.0 - Partly cloudy 10 - - - -
23/04:00am 20.1 NNW 1 4 1020.7 - 0.0 - Partly cloudy 10 - - - -
23/03:30am 19.6 WNW 2 4 1020.5 - 0.0 - Partly cloudy 10 - - - -
23/03:00am 20.4 NW 3 5 1020.5 - 0.0 - Partly cloudy 10 - - - -
23/02:30am 19.4 N 2 6 1020.5 - 0.0 - Partly cloudy 10 - - - -
23/02:00am 20.0 NNW 3 6 1020.6 - 0.0 - Partly cloudy 10 - - - -
23/01:30am 20.5 NNW 4 5 1020.9 - 0.0 - Partly cloudy 10 - - - -
23/01:00am 20.0 NNE 3 5 1021.1 - 0.0 - Partly cloudy 10 - - - -
23/12:30am 21.0 N 5 8 1021.4 - 0.0 - - 10 - - - -
23/12:00am 21.5 N 7 12 1021.4 - 0.0 - Partly cloudy 10 - - - -
 
Date/Time
EST
Temp

°C
Wind Pressure Rain
since 9am
mm
Weather Cloud Vis
km
Sea
Height
m
Swell
Dir
 
Speed
knots
Gust
knots
hPa Trend Height
m
Period
s
Dir
22/11:30pm 21.8 N 6 10 1021.5 - 0.0 - Cloudy 10 - - - -
22/11:00pm 21.5 N 7 11 1021.7 - 0.0 - Partly cloudy 10 - - - -
22/10:30pm 21.6 N 6 11 1021.8 - 0.0 - Partly cloudy 10 - - - -
22/10:00pm 21.5 N 7 12 1022.1 - 0.0 - Partly cloudy 10 - - - -
22/09:30pm 21.4 NNE 7 12 1022.0 - 0.0 - - 10 - - - -
22/09:00pm 21.3 NNE 9 12 1021.9 - 0.0 - Partly cloudy 10 - - - -
22/08:30pm 21.3 NE 10 12 1021.8 - 0.0 - Mostly clear 10 - - - -
22/08:00pm 21.4 NNE 8 12 1021.9 - 0.0 - Partly cloudy 10 - - - -
22/07:30pm 21.5 NNE 9 11 1021.7 - 0.0 - Partly cloudy 10 - - - -
22/07:00pm 21.2 NNE 6 9 1021.9 - 0.0 - Partly cloudy 10 - - - -
22/06:30pm 21.2 NNE 6 9 1021.9 - 0.0 - Partly cloudy 10 - - - -
22/06:00pm 20.0 N 4 5 1021.9 - 0.0 - Partly cloudy 10 - - - -
22/05:30pm 20.4 N 5 8 1021.8 - 0.0 - - 10 - - - -
22/05:00pm 20.6 N 4 7 1021.5 - 0.0 - - 10 - - - -
22/04:30pm 22.0 N 3 5 1021.5 - 0.0 - - 10 - - - -
22/04:00pm 22.7 NNE 5 8 1021.4 - 0.0 - - 10 - - - -
22/03:30pm 23.0 NNE 6 9 1021.6 - 0.0 - - 10 - - - -
22/03:00pm 23.2 NNE 7 12 1021.3 - 0.0 - - 10 - - - -
22/02:30pm 23.8 N 6 10 1021.4 F 0.0 Fine Mostly clear 30 - - - -
22/02:00pm 24.0 NNW 6 8 1021.5 - 0.0 - Mostly clear 10 - - - -
22/01:30pm 24.2 N 6 9 1021.5 - 0.0 - Mostly clear 10 - - - -
22/01:00pm 24.0 N 6 9 1021.6 - 0.0 - Mostly clear 10 - - - -
22/12:30pm 23.7 NNE 9 11 1021.8 - 0.0 - Mostly clear 10 - - - -
22/12:00pm 23.9 NNE 8 11 1022.1 - 0.0 - Mostly clear 10 - - - -
22/11:30am 24.1 NE 8 11 1022.5 F 0.0 Fine Partly cloudy 30 - - - -
22/11:00am 24.1 NNE 9 12 1022.8 - 0.0 - Mostly clear 10 - - - -
22/10:30am 24.1 NNE 9 13 1023.1 - 0.0 - Mostly clear 10 - - - -
22/10:00am 24.1 NNE 9 11 1023.3 - 0.0 - Mostly clear 10 - - - -
22/09:30am 23.9 N 6 11 1023.5 - 0.0 - Mostly clear 10 - - - -
22/09:00am 23.7 N 6 9 1023.5 - 0.0 - Mostly clear 10 - - - -
22/08:30am 23.9 N 4 6 1023.8 R 0.0 Fine Mostly clear 30 - - - -
22/08:00am 22.8 N 6 9 1023.6 - 0.0 - Mostly clear 10 - - - -
22/07:30am 22.5 NNW 4 7 1023.5 - 0.0 - Mostly clear 10 - - - -
22/07:00am 21.6 NNW 3 5 1023.2 - 0.0 - Mostly clear 10 - - - -
22/06:30am 19.1 N 2 3 1023.1 - 0.0 - Mostly clear 10 - - - -
22/06:00am 16.4 CALM 0 3 1022.9 - 0.0 - Mostly clear 10 - - - -
22/05:30am 16.4 CALM 0 0 1022.6 F 0.0 Fine Mostly clear 30 - - - -
22/05:00am 16.8 N 3 4 1022.3 - 0.0 - - 10 - - - -
22/04:30am 15.9 CALM 0 0 1022.3 - 0.0 - - 10 - - - -
22/04:00am 16.6 CALM 0 2 1022.3 - 0.0 - - 10 - - - -
22/03:30am 17.4 N 1 4 1022.2 - 0.0 - - 10 - - - -
22/03:00am 17.6 N 1 4 1022.2 - 0.0 - - 10 - - - -
22/02:30am 18.5 N 4 5 1022.1 - 0.0 - - 10 - - - -
22/02:00am 17.9 N 1 3 1022.2 - 0.0 - Partly cloudy 10 - - - -
22/01:30am 19.1 N 4 6 1022.5 - 0.0 - Partly cloudy 10 - - - -
22/01:00am 20.2 N 5 7 1022.6 - 0.0 - Partly cloudy 10 - - - -
22/12:30am 19.5 N 5 7 1022.7 - 0.0 - - 10 - - - -
22/12:00am 19.0 N 4 5 1022.7 - 0.0 - - 10 - - - -
 
Date/Time
EST
Temp

°C
Wind Pressure Rain
since 9am
mm
Weather Cloud Vis
km
Sea
Height
m
Swell
Dir
 
Speed
knots
Gust
knots
hPa Trend Height
m
Period
s
Dir
21/11:30pm 19.5 N 5 7 1022.8 - 0.0 - Mostly clear 10 - - - -
21/11:00pm 20.1 N 5 6 1022.9 - 0.0 - Partly cloudy 10 - - - -
21/10:30pm 18.8 NNE 3 5 1022.8 - 0.0 - - 10 - - - -
21/10:00pm 18.6 NNE 4 5 1022.7 - 0.0 - - 10 - - - -
21/09:30pm 19.9 ENE 6 7 1022.6 - 0.0 - Partly cloudy 10 - - - -
21/09:00pm 19.8 ENE 7 8 1022.5 - 0.0 - Partly cloudy 10 - - - -
21/08:30pm 19.8 ENE 7 9 1022.4 - 0.0 - - 10 - - - -
21/08:00pm 18.9 NE 6 8 1022.4 - 0.0 - - 10 - - - -
21/07:30pm 17.9 NE 5 7 1022.3 - 0.0 - - 10 - - - -
21/07:00pm 16.4 CALM 0 0 1022.0 - 0.0 - - 10 - - - -
21/06:30pm 16.6 NE 1 4 1021.7 - 0.0 - - 10 - - - -
21/06:00pm 17.7 ESE 3 5 1021.6 - 0.0 - - 10 - - - -
21/05:30pm 18.6 ESE 4 5 1021.4 - 0.0 - - 10 - - - -
21/05:00pm 19.8 ESE 4 5 1021.2 - 0.0 - - 10 - - - -
21/04:30pm 21.0 E 4 5 1021.1 - 0.0 - - 10 - - - -
21/04:00pm 21.8 E 4 5 1020.9 - 0.0 - - 10 - - - -
21/03:30pm 22.2 ENE 4 6 1020.7 - 0.0 - - 10 - - - -
21/03:00pm 22.4 E 5 7 1020.7 - 0.0 - - 10 - - - -
21/02:30pm 23.5 NE 1 5 1020.7 R 0.0 Fine Mostly clear 30 - - - -
21/02:00pm 22.9 E 4 5 1020.7 - 0.0 - Mostly clear 10 - - - -
21/01:30pm 23.3 E 4 6 1020.8 - 0.0 - Mostly clear 10 - - - -
21/01:00pm 22.2 ENE 5 7 1020.9 - 0.0 - Mostly clear 10 - - - -
21/12:30pm 23.7 N 5 8 1021.0 - 0.0 - Mostly clear 10 - - - -
21/12:00pm 23.4 WSW 3 6 1021.4 - 0.0 - Mostly clear 10 - - - -

Other Formats:

Comma delimited format used in spreadsheet applications
http://www.bom.gov.au/fwo/IDN60701/IDN60701.94995.axf

JavaScript Object Notation format (JSON) in row-major order
http://www.bom.gov.au/fwo/IDN60701/IDN60701.94995.json